Terminal Aerodrome Forecast
Issued by NWS Topeka, KS

Home | Current Version | Previous Version | Text Only | Print | Product List | Glossary On
Versions: 1 2 3 4 5 6 7 8 9 10 11 12 13 14 15 16 17 18 19 20 21 22 23 24 25 26 27
000
FTUS43 KTOP 301123
TAFTOP
TAF
KTOP 301123Z 3012/0112 08011KT 4SM -SHRA OVC004
     FM301300 15008KT 5SM BR BKN005 OVC015
     FM301600 22010KT P6SM SCT006 OVC015
     FM302100 27009KT P6SM SCT025 BKN040
     FM010600 27010KT P6SM SCT006 BKN014=

USA.gov is the U.S. government's official web portal to all federal, state and local government web resources and services.